sensor_id;sensor_type;location;lat;lon;timestamp;temperature;humidity
9329;DHT22;4703;48.748;19.142;2024-03-23T00:54:40;11.60;99.90
9329;DHT22;4703;48.748;19.142;2024-03-23T00:57:06;10.80;99.90
9329;DHT22;4703;48.748;19.142;2024-03-23T00:59:32;11.70;99.90
9329;DHT22;4703;48.748;19.142;2024-03-23T01:01:58;11.50;99.90
9329;DHT22;4703;48.748;19.142;2024-03-23T01:04:24;11.30;99.90
9329;DHT22;4703;48.748;19.142;2024-03-23T01:06:50;9.00;99.90
9329;DHT22;4703;48.748;19.142;2024-03-23T01:09:16;11.60;99.90
9329;DHT22;4703;48.748;19.142;2024-03-23T01:11:42;9.00;99.90
9329;DHT22;4703;48.748;19.142;2024-03-23T01:14:08;11.10;99.90
9329;DHT22;4703;48.748;19.142;2024-03-23T01:16:34;10.90;99.90
9329;DHT22;4703;48.748;19.142;2024-03-23T01:19:00;8.90;99.90
9329;DHT22;4703;48.748;19.142;2024-03-23T01:21:26;9.00;99.90
9329;DHT22;4703;48.748;19.142;2024-03-23T01:23:52;10.80;99.90
9329;DHT22;4703;48.748;19.142;2024-03-23T01:26:18;8.90;99.90
9329;DHT22;4703;48.748;19.142;2024-03-23T01:28:44;10.10;99.90
9329;DHT22;4703;48.748;19.142;2024-03-23T01:31:10;11.30;99.90
9329;DHT22;4703;48.748;19.142;2024-03-23T01:33:36;10.30;99.90
9329;DHT22;4703;48.748;19.142;2024-03-23T01:36:02;11.60;99.90
9329;DHT22;4703;48.748;19.142;2024-03-23T01:38:29;8.90;99.90
9329;DHT22;4703;48.748;19.142;2024-03-23T01:40:58;10.30;99.90
9329;DHT22;4703;48.748;19.142;2024-03-23T01:43:24;11.10;99.90
9329;DHT22;4703;48.748;19.142;2024-03-23T01:45:50;8.90;99.90
9329;DHT22;4703;48.748;19.142;2024-03-23T01:48:20;11.20;99.90
9329;DHT22;4703;48.748;19.142;2024-03-23T01:50:46;8.80;99.90
9329;DHT22;4703;48.748;19.142;2024-03-23T01:53:14;9.40;99.90
9329;DHT22;4703;48.748;19.142;2024-03-23T01:55:43;10.30;99.90
9329;DHT22;4703;48.748;19.142;2024-03-23T01:58:09;8.80;99.90
9329;DHT22;4703;48.748;19.142;2024-03-23T02:00:35;11.60;99.90
9329;DHT22;4703;48.748;19.142;2024-03-23T02:03:02;11.20;99.90
9329;DHT22;4703;48.748;19.142;2024-03-23T02:05:28;8.80;99.90
9329;DHT22;4703;48.748;19.142;2024-03-23T02:07:54;11.40;99.90
9329;DHT22;4703;48.748;19.142;2024-03-23T02:10:20;9.00;99.90
9329;DHT22;4703;48.748;19.142;2024-03-23T02:12:46;10.70;99.90
9329;DHT22;4703;48.748;19.142;2024-03-23T02:15:12;8.80;99.90
9329;DHT22;4703;48.748;19.142;2024-03-23T02:17:38;9.90;99.90
9329;DHT22;4703;48.748;19.142;2024-03-23T02:20:04;8.80;99.90
9329;DHT22;4703;48.748;19.142;2024-03-23T02:22:39;8.80;99.90
9329;DHT22;4703;48.748;19.142;2024-03-23T02:25:06;8.70;99.90
9329;DHT22;4703;48.748;19.142;2024-03-23T02:27:32;10.20;99.90
9329;DHT22;4703;48.748;19.142;2024-03-23T02:30:00;10.20;99.90
9329;DHT22;4703;48.748;19.142;2024-03-23T02:32:26;10.40;99.90
9329;DHT22;4703;48.748;19.142;2024-03-23T02:34:52;10.10;99.90
9329;DHT22;4703;48.748;19.142;2024-03-23T02:37:18;8.70;99.90
9329;DHT22;4703;48.748;19.142;2024-03-23T02:39:44;8.70;99.90
9329;DHT22;4703;48.748;19.142;2024-03-23T02:42:10;10.90;99.90
9329;DHT22;4703;48.748;19.142;2024-03-23T02:44:36;10.50;99.90
9329;DHT22;4703;48.748;19.142;2024-03-23T02:47:02;9.00;99.90
9329;DHT22;4703;48.748;19.142;2024-03-23T02:49:28;8.70;99.90
9329;DHT22;4703;48.748;19.142;2024-03-23T02:51:54;10.30;99.90
9329;DHT22;4703;48.748;19.142;2024-03-23T02:54:20;11.40;99.90
9329;DHT22;4703;48.748;19.142;2024-03-23T02:56:46;8.70;99.90
9329;DHT22;4703;48.748;19.142;2024-03-23T02:59:12;8.70;99.90
9329;DHT22;4703;48.748;19.142;2024-03-23T03:01:38;9.50;99.90
9329;DHT22;4703;48.748;19.142;2024-03-23T03:04:04;8.70;99.90
9329;DHT22;4703;48.748;19.142;2024-03-23T03:06:31;9.10;99.90
9329;DHT22;4703;48.748;19.142;2024-03-23T03:08:57;8.90;99.90
9329;DHT22;4703;48.748;19.142;2024-03-23T03:11:23;11.40;99.90
9329;DHT22;4703;48.748;19.142;2024-03-23T03:13:49;9.80;99.90
9329;DHT22;4703;48.748;19.142;2024-03-23T03:16:15;8.70;99.90
9329;DHT22;4703;48.748;19.142;2024-03-23T03:18:41;9.90;99.90
9329;DHT22;4703;48.748;19.142;2024-03-23T03:21:07;10.20;99.90
9329;DHT22;4703;48.748;19.142;2024-03-23T03:23:39;10.90;99.90
9329;DHT22;4703;48.748;19.142;2024-03-23T03:26:05;8.70;99.90
9329;DHT22;4703;48.748;19.142;2024-03-23T03:28:32;9.60;99.90
9329;DHT22;4703;48.748;19.142;2024-03-23T03:30:59;8.60;99.90
9329;DHT22;4703;48.748;19.142;2024-03-23T03:33:28;8.60;99.90
9329;DHT22;4703;48.748;19.142;2024-03-23T03:35:55;8.60;99.90
9329;DHT22;4703;48.748;19.142;2024-03-23T03:38:21;9.10;99.90
9329;DHT22;4703;48.748;19.142;2024-03-23T03:40:47;11.10;99.90
9329;DHT22;4703;48.748;19.142;2024-03-23T03:43:13;9.00;99.90
9329;DHT22;4703;48.748;19.142;2024-03-23T03:45:39;10.90;99.90
9329;DHT22;4703;48.748;19.142;2024-03-23T03:48:06;10.30;99.90
9329;DHT22;4703;48.748;19.142;2024-03-23T03:50:32;8.50;99.90
9329;DHT22;4703;48.748;19.142;2024-03-23T03:52:58;8.60;99.90
9329;DHT22;4703;48.748;19.142;2024-03-23T03:55:24;8.60;99.90
9329;DHT22;4703;48.748;19.142;2024-03-23T03:57:50;8.60;99.90
9329;DHT22;4703;48.748;19.142;2024-03-23T04:00:16;9.50;99.90
9329;DHT22;4703;48.748;19.142;2024-03-23T04:02:42;8.60;99.90
9329;DHT22;4703;48.748;19.142;2024-03-23T04:05:08;9.80;99.90
9329;DHT22;4703;48.748;19.142;2024-03-23T04:07:34;10.40;99.90
9329;DHT22;4703;48.748;19.142;2024-03-23T04:10:00;10.70;99.90
9329;DHT22;4703;48.748;19.142;2024-03-23T04:12:26;8.60;99.90
9329;DHT22;4703;48.748;19.142;2024-03-23T04:14:52;10.70;99.90
9329;DHT22;4703;48.748;19.142;2024-03-23T04:17:19;10.60;99.90
9329;DHT22;4703;48.748;19.142;2024-03-23T04:19:45;10.90;99.90
9329;DHT22;4703;48.748;19.142;2024-03-23T04:22:11;8.60;99.90
9329;DHT22;4703;48.748;19.142;2024-03-23T04:24:37;8.60;99.90
9329;DHT22;4703;48.748;19.142;2024-03-23T04:27:03;11.30;99.90
9329;DHT22;4703;48.748;19.142;2024-03-23T04:29:29;10.40;99.90
9329;DHT22;4703;48.748;19.142;2024-03-23T04:31:55;8.50;99.90
9329;DHT22;4703;48.748;19.142;2024-03-23T04:34:22;8.50;99.90
9329;DHT22;4703;48.748;19.142;2024-03-23T04:36:49;8.50;99.90
9329;DHT22;4703;48.748;19.142;2024-03-23T04:39:14;9.60;99.90
9329;DHT22;4703;48.748;19.142;2024-03-23T04:41:41;8.50;99.90
9329;DHT22;4703;48.748;19.142;2024-03-23T04:44:07;10.10;99.90
9329;DHT22;4703;48.748;19.142;2024-03-23T04:46:33;8.50;99.90
9329;DHT22;4703;48.748;19.142;2024-03-23T04:48:59;10.90;99.90
9329;DHT22;4703;48.748;19.142;2024-03-23T04:51:25;8.40;99.90
9329;DHT22;4703;48.748;19.142;2024-03-23T04:53:51;11.20;99.90
9329;DHT22;4703;48.748;19.142;2024-03-23T04:56:17;8.80;99.90
9329;DHT22;4703;48.748;19.142;2024-03-23T04:58:44;10.50;99.90
9329;DHT22;4703;48.748;19.142;2024-03-23T05:01:11;8.30;99.90
9329;DHT22;4703;48.748;19.142;2024-03-23T05:03:37;10.10;99.90
9329;DHT22;4703;48.748;19.142;2024-03-23T05:06:03;10.80;99.90
9329;DHT22;4703;48.748;19.142;2024-03-23T05:08:31;8.30;99.90
9329;DHT22;4703;48.748;19.142;2024-03-23T05:10:57;10.40;99.90
9329;DHT22;4703;48.748;19.142;2024-03-23T05:13:23;8.40;99.90
9329;DHT22;4703;48.748;19.142;2024-03-23T05:15:55;8.40;99.90
9329;DHT22;4703;48.748;19.142;2024-03-23T05:18:22;8.40;99.90
9329;DHT22;4703;48.748;19.142;2024-03-23T05:20:48;8.40;99.90
9329;DHT22;4703;48.748;19.142;2024-03-23T05:23:14;9.50;99.90
9329;DHT22;4703;48.748;19.142;2024-03-23T05:25:40;9.20;99.90
9329;DHT22;4703;48.748;19.142;2024-03-23T05:28:06;10.80;99.90
9329;DHT22;4703;48.748;19.142;2024-03-23T05:30:32;8.40;99.90
9329;DHT22;4703;48.748;19.142;2024-03-23T05:32:59;9.00;99.90
9329;DHT22;4703;48.748;19.142;2024-03-23T05:35:25;9.60;99.90
9329;DHT22;4703;48.748;19.142;2024-03-23T05:37:51;9.70;99.90
9329;DHT22;4703;48.748;19.142;2024-03-23T05:40:17;8.50;99.90
9329;DHT22;4703;48.748;19.142;2024-03-23T05:42:43;10.30;99.90
9329;DHT22;4703;48.748;19.142;2024-03-23T05:45:09;8.50;99.90
9329;DHT22;4703;48.748;19.142;2024-03-23T05:47:35;8.60;99.90
9329;DHT22;4703;48.748;19.142;2024-03-23T05:50:01;8.60;99.90
9329;DHT22;4703;48.748;19.142;2024-03-23T05:52:27;10.60;99.90
9329;DHT22;4703;48.748;19.142;2024-03-23T05:54:54;11.10;99.90
9329;DHT22;4703;48.748;19.142;2024-03-23T05:57:20;8.60;99.90
9329;DHT22;4703;48.748;19.142;2024-03-23T05:59:46;9.80;99.90
9329;DHT22;4703;48.748;19.142;2024-03-23T06:02:12;10.60;99.90
9329;DHT22;4703;48.748;19.142;2024-03-23T06:04:38;10.70;99.90
9329;DHT22;4703;48.748;19.142;2024-03-23T06:07:04;11.00;99.90
9329;DHT22;4703;48.748;19.142;2024-03-23T06:09:32;9.80;99.90
9329;DHT22;4703;48.748;19.142;2024-03-23T06:11:59;10.50;99.90
9329;DHT22;4703;48.748;19.142;2024-03-23T06:14:25;9.00;99.90
9329;DHT22;4703;48.748;19.142;2024-03-23T06:16:51;10.20;99.90
9329;DHT22;4703;48.748;19.142;2024-03-23T06:19:17;10.90;99.90
9329;DHT22;4703;48.748;19.142;2024-03-23T06:21:44;9.20;99.90
9329;DHT22;4703;48.748;19.142;2024-03-23T06:24:11;11.20;99.90
9329;DHT22;4703;48.748;19.142;2024-03-23T06:26:37;11.00;99.90
9329;DHT22;4703;48.748;19.142;2024-03-23T06:29:03;10.60;99.90
9329;DHT22;4703;48.748;19.142;2024-03-23T06:31:31;9.50;99.90
9329;DHT22;4703;48.748;19.142;2024-03-23T06:33:57;9.50;99.90
9329;DHT22;4703;48.748;19.142;2024-03-23T06:36:23;11.40;99.90
9329;DHT22;4703;48.748;19.142;2024-03-23T06:38:49;9.60;99.90
9329;DHT22;4703;48.748;19.142;2024-03-23T06:41:15;9.70;99.90
9329;DHT22;4703;48.748;19.142;2024-03-23T06:43:41;9.70;99.90
9329;DHT22;4703;48.748;19.142;2024-03-23T06:46:07;12.10;99.90
9329;DHT22;4703;48.748;19.142;2024-03-23T06:48:33;11.50;99.90
9329;DHT22;4703;48.748;19.142;2024-03-23T06:50:59;10.80;99.90
9329;DHT22;4703;48.748;19.142;2024-03-23T06:53:25;11.10;99.90
9329;DHT22;4703;48.748;19.142;2024-03-23T06:55:53;9.90;99.90
9329;DHT22;4703;48.748;19.142;2024-03-23T06:58:24;10.90;99.90
9329;DHT22;4703;48.748;19.142;2024-03-23T07:00:50;9.90;99.90
9329;DHT22;4703;48.748;19.142;2024-03-23T07:03:17;10.30;99.90
9329;DHT22;4703;48.748;19.142;2024-03-23T07:05:43;11.70;99.90
9329;DHT22;4703;48.748;19.142;2024-03-23T07:08:09;11.00;99.90
9329;DHT22;4703;48.748;19.142;2024-03-23T07:10:38;10.10;99.90
9329;DHT22;4703;48.748;19.142;2024-03-23T07:13:05;10.20;99.90
9329;DHT22;4703;48.748;19.142;2024-03-23T07:15:32;10.30;99.90
9329;DHT22;4703;48.748;19.142;2024-03-23T07:17:58;10.40;99.90
9329;DHT22;4703;48.748;19.142;2024-03-23T07:20:24;11.80;99.90
9329;DHT22;4703;48.748;19.142;2024-03-23T07:22:50;10.60;99.90
9329;DHT22;4703;48.748;19.142;2024-03-23T07:25:16;12.10;99.90
9329;DHT22;4703;48.748;19.142;2024-03-23T07:27:42;10.70;99.90
9329;DHT22;4703;48.748;19.142;2024-03-23T07:30:08;11.30;99.90
9329;DHT22;4703;48.748;19.142;2024-03-23T07:32:35;10.70;99.90
9329;DHT22;4703;48.748;19.142;2024-03-23T07:35:02;12.30;99.90
9329;DHT22;4703;48.748;19.142;2024-03-23T07:37:28;10.80;99.90
9329;DHT22;4703;48.748;19.142;2024-03-23T07:39:54;10.90;99.90
9329;DHT22;4703;48.748;19.142;2024-03-23T07:42:21;12.30;99.90
9329;DHT22;4703;48.748;19.142;2024-03-23T07:44:47;11.00;99.90
9329;DHT22;4703;48.748;19.142;2024-03-23T07:47:13;12.50;99.90
9329;DHT22;4703;48.748;19.142;2024-03-23T07:49:39;12.50;99.90
9329;DHT22;4703;48.748;19.142;2024-03-23T07:52:05;11.30;99.90
9329;DHT22;4703;48.748;19.142;2024-03-23T07:54:33;11.40;99.90
9329;DHT22;4703;48.748;19.142;2024-03-23T07:56:59;12.70;99.90
9329;DHT22;4703;48.748;19.142;2024-03-23T07:59:25;11.80;99.90
9329;DHT22;4703;48.748;19.142;2024-03-23T08:01:51;11.50;99.90
9329;DHT22;4703;48.748;19.142;2024-03-23T08:04:18;11.80;99.90
9329;DHT22;4703;48.748;19.142;2024-03-23T08:06:44;12.80;99.90
9329;DHT22;4703;48.748;19.142;2024-03-23T08:09:10;12.60;99.90
9329;DHT22;4703;48.748;19.142;2024-03-23T08:11:36;12.70;99.90
9329;DHT22;4703;48.748;19.142;2024-03-23T08:14:04;11.30;99.90
9329;DHT22;4703;48.748;19.142;2024-03-23T08:16:31;11.40;99.90
9329;DHT22;4703;48.748;19.142;2024-03-23T08:18:57;11.90;99.90
9329;DHT22;4703;48.748;19.142;2024-03-23T08:21:23;11.20;99.90
9329;DHT22;4703;48.748;19.142;2024-03-23T08:23:51;11.80;99.90
9329;DHT22;4703;48.748;19.142;2024-03-23T08:26:17;12.00;99.90
9329;DHT22;4703;48.748;19.142;2024-03-23T08:28:43;11.80;99.90
9329;DHT22;4703;48.748;19.142;2024-03-23T08:31:11;11.30;99.90
9329;DHT22;4703;48.748;19.142;2024-03-23T08:33:38;12.50;99.90
9329;DHT22;4703;48.748;19.142;2024-03-23T08:36:06;12.50;99.90
9329;DHT22;4703;48.748;19.142;2024-03-23T08:38:33;11.40;99.90
9329;DHT22;4703;48.748;19.142;2024-03-23T08:41:05;12.10;99.90
9329;DHT22;4703;48.748;19.142;2024-03-23T08:43:35;11.40;99.90
9329;DHT22;4703;48.748;19.142;2024-03-23T08:46:13;11.40;99.90
9329;DHT22;4703;48.748;19.142;2024-03-23T08:48:46;11.50;99.90
9329;DHT22;4703;48.748;19.142;2024-03-23T08:51:16;11.60;99.90
9329;DHT22;4703;48.748;19.142;2024-03-23T08:53:43;13.20;99.90
9329;DHT22;4703;48.748;19.142;2024-03-23T08:56:10;12.90;99.90
9329;DHT22;4703;48.748;19.142;2024-03-23T08:58:37;12.00;99.90
9329;DHT22;4703;48.748;19.142;2024-03-23T09:01:13;12.90;99.90
9329;DHT22;4703;48.748;19.142;2024-03-23T09:03:39;12.60;99.90
9329;DHT22;4703;48.748;19.142;2024-03-23T09:06:13;13.40;99.90
9329;DHT22;4703;48.748;19.142;2024-03-23T09:08:40;12.20;99.90
9329;DHT22;4703;48.748;19.142;2024-03-23T09:11:08;12.20;99.90
9329;DHT22;4703;48.748;19.142;2024-03-23T09:13:36;12.30;99.90
9329;DHT22;4703;48.748;19.142;2024-03-23T09:16:04;13.20;99.90
9329;DHT22;4703;48.748;19.142;2024-03-23T09:18:35;12.40;99.90
9329;DHT22;4703;48.748;19.142;2024-03-23T09:21:03;12.50;99.90
9329;DHT22;4703;48.748;19.142;2024-03-23T09:23:36;12.60;99.80
9329;DHT22;4703;48.748;19.142;2024-03-23T09:26:05;13.20;99.10
9329;DHT22;4703;48.748;19.142;2024-03-23T09:28:33;12.80;98.30
9329;DHT22;4703;48.748;19.142;2024-03-23T09:31:06;12.90;99.00
9329;DHT22;4703;48.748;19.142;2024-03-23T09:33:35;15.20;99.90
9329;DHT22;4703;48.748;19.142;2024-03-23T09:36:04;13.60;99.00
9329;DHT22;4703;48.748;19.142;2024-03-23T09:38:32;13.30;98.10
9329;DHT22;4703;48.748;19.142;2024-03-23T09:40:58;14.30;98.20
9329;DHT22;4703;48.748;19.142;2024-03-23T09:43:25;16.10;98.50
9329;DHT22;4703;48.748;19.142;2024-03-23T09:45:52;13.50;96.90
9329;DHT22;4703;48.748;19.142;2024-03-23T09:48:19;13.70;97.20
9329;DHT22;4703;48.748;19.142;2024-03-23T09:50:45;13.80;96.60
9329;DHT22;4703;48.748;19.142;2024-03-23T09:53:14;13.80;96.40
9329;DHT22;4703;48.748;19.142;2024-03-23T09:55:42;13.90;96.90
9329;DHT22;4703;48.748;19.142;2024-03-23T09:58:15;14.20;97.10
9329;DHT22;4703;48.748;19.142;2024-03-23T10:00:42;14.40;96.80
9329;DHT22;4703;48.748;19.142;2024-03-23T10:03:08;14.50;96.20
9329;DHT22;4703;48.748;19.142;2024-03-23T10:05:37;14.90;96.00
9329;DHT22;4703;48.748;19.142;2024-03-23T10:10:42;14.80;94.90
9329;DHT22;4703;48.748;19.142;2024-03-23T10:13:08;14.60;95.00
9329;DHT22;4703;48.748;19.142;2024-03-23T10:15:36;14.60;95.20
9329;DHT22;4703;48.748;19.142;2024-03-23T10:18:19;14.50;95.10
9329;DHT22;4703;48.748;19.142;2024-03-23T10:20:51;14.50;94.80
9329;DHT22;4703;48.748;19.142;2024-03-23T10:23:23;14.40;95.20
9329;DHT22;4703;48.748;19.142;2024-03-23T10:25:49;14.40;95.60
9329;DHT22;4703;48.748;19.142;2024-03-23T10:28:15;14.60;95.40
9329;DHT22;4703;48.748;19.142;2024-03-23T10:30:43;14.60;94.80
9329;DHT22;4703;48.748;19.142;2024-03-23T10:33:10;14.90;95.20
9329;DHT22;4703;48.748;19.142;2024-03-23T10:35:37;14.40;94.70
9329;DHT22;4703;48.748;19.142;2024-03-23T10:38:07;14.40;94.60
9329;DHT22;4703;48.748;19.142;2024-03-23T10:40:36;14.30;94.70
9329;DHT22;4703;48.748;19.142;2024-03-23T10:43:03;14.30;94.80
9329;DHT22;4703;48.748;19.142;2024-03-23T10:45:30;14.30;94.80
9329;DHT22;4703;48.748;19.142;2024-03-23T10:47:57;15.10;95.10
9329;DHT22;4703;48.748;19.142;2024-03-23T10:50:23;14.90;95.30
9329;DHT22;4703;48.748;19.142;2024-03-23T10:52:49;14.50;94.80
9329;DHT22;4703;48.748;19.142;2024-03-23T10:55:19;14.60;94.70
9329;DHT22;4703;48.748;19.142;2024-03-23T10:57:52;14.70;95.00
9329;DHT22;4703;48.748;19.142;2024-03-23T11:00:20;15.00;95.10
9329;DHT22;4703;48.748;19.142;2024-03-23T11:02:49;14.90;95.00
9329;DHT22;4703;48.748;19.142;2024-03-23T11:05:28;15.20;94.90
9329;DHT22;4703;48.748;19.142;2024-03-23T11:07:55;14.90;95.20
9329;DHT22;4703;48.748;19.142;2024-03-23T11:13:21;15.00;94.90
9329;DHT22;4703;48.748;19.142;2024-03-23T11:15:48;14.90;95.20
9329;DHT22;4703;48.748;19.142;2024-03-23T11:18:20;14.90;94.80
9329;DHT22;4703;48.748;19.142;2024-03-23T11:20:47;15.10;94.60
9329;DHT22;4703;48.748;19.142;2024-03-23T11:23:28;15.00;95.00
9329;DHT22;4703;48.748;19.142;2024-03-23T11:25:55;14.90;95.40
9329;DHT22;4703;48.748;19.142;2024-03-23T11:28:20;15.10;93.90
9329;DHT22;4703;48.748;19.142;2024-03-23T11:30:47;15.30;94.20
9329;DHT22;4703;48.748;19.142;2024-03-23T11:33:14;15.50;94.80
9329;DHT22;4703;48.748;19.142;2024-03-23T11:35:41;15.20;94.40
9329;DHT22;4703;48.748;19.142;2024-03-23T11:38:14;15.10;93.70
9329;DHT22;4703;48.748;19.142;2024-03-23T11:40:50;15.20;93.80
9329;DHT22;4703;48.748;19.142;2024-03-23T11:43:19;17.40;94.60
9329;DHT22;4703;48.748;19.142;2024-03-23T11:45:55;15.50;93.50
9329;DHT22;4703;48.748;19.142;2024-03-23T11:48:23;15.20;93.60
9329;DHT22;4703;48.748;19.142;2024-03-23T11:50:51;15.20;93.50
9329;DHT22;4703;48.748;19.142;2024-03-23T11:53:22;15.20;93.40
9329;DHT22;4703;48.748;19.142;2024-03-23T11:55:52;15.30;93.30
9329;DHT22;4703;48.748;19.142;2024-03-23T11:58:22;15.40;93.00
9329;DHT22;4703;48.748;19.142;2024-03-23T12:01:02;15.50;93.10
9329;DHT22;4703;48.748;19.142;2024-03-23T12:03:30;15.50;93.40
9329;DHT22;4703;48.748;19.142;2024-03-23T12:05:59;17.00;94.00
9329;DHT22;4703;48.748;19.142;2024-03-23T12:08:34;15.60;93.60
9329;DHT22;4703;48.748;19.142;2024-03-23T12:11:05;15.70;93.30
9329;DHT22;4703;48.748;19.142;2024-03-23T12:13:41;15.80;92.80
9329;DHT22;4703;48.748;19.142;2024-03-23T12:16:20;15.80;92.70
9329;DHT22;4703;48.748;19.142;2024-03-23T12:18:50;15.90;92.80
9329;DHT22;4703;48.748;19.142;2024-03-23T12:21:20;15.90;92.60
9329;DHT22;4703;48.748;19.142;2024-03-23T12:23:49;15.90;92.70
9329;DHT22;4703;48.748;19.142;2024-03-23T12:26:15;16.00;92.40
9329;DHT22;4703;48.748;19.142;2024-03-23T12:28:43;16.10;92.60
9329;DHT22;4703;48.748;19.142;2024-03-23T12:31:10;16.10;92.70
9329;DHT22;4703;48.748;19.142;2024-03-23T12:33:36;16.10;92.80
9329;DHT22;4703;48.748;19.142;2024-03-23T12:36:03;16.20;92.50
9329;DHT22;4703;48.748;19.142;2024-03-23T12:38:30;16.10;92.30
9329;DHT22;4703;48.748;19.142;2024-03-23T12:40:56;16.10;92.30
9329;DHT22;4703;48.748;19.142;2024-03-23T12:43:22;16.10;92.40
9329;DHT22;4703;48.748;19.142;2024-03-23T12:45:48;16.20;92.30
9329;DHT22;4703;48.748;19.142;2024-03-23T12:48:15;16.10;92.30
9329;DHT22;4703;48.748;19.142;2024-03-23T12:50:42;16.10;92.30
9329;DHT22;4703;48.748;19.142;2024-03-23T12:53:08;16.10;91.90
9329;DHT22;4703;48.748;19.142;2024-03-23T12:55:37;16.10;91.80
9329;DHT22;4703;48.748;19.142;2024-03-23T12:58:04;16.20;92.00
9329;DHT22;4703;48.748;19.142;2024-03-23T13:00:30;16.10;92.20
9329;DHT22;4703;48.748;19.142;2024-03-23T13:02:56;16.10;91.80
9329;DHT22;4703;48.748;19.142;2024-03-23T13:05:22;16.10;91.80
9329;DHT22;4703;48.748;19.142;2024-03-23T13:07:48;16.20;91.80
9329;DHT22;4703;48.748;19.142;2024-03-23T13:10:14;16.30;91.50
9329;DHT22;4703;48.748;19.142;2024-03-23T13:12:41;16.20;91.10
9329;DHT22;4703;48.748;19.142;2024-03-23T13:15:08;16.20;91.40
9329;DHT22;4703;48.748;19.142;2024-03-23T13:17:34;16.20;91.00
9329;DHT22;4703;48.748;19.142;2024-03-23T13:20:00;16.20;90.80
9329;DHT22;4703;48.748;19.142;2024-03-23T13:22:26;16.10;91.00
9329;DHT22;4703;48.748;19.142;2024-03-23T13:24:54;16.10;90.60
9329;DHT22;4703;48.748;19.142;2024-03-23T13:27:20;16.00;90.40
9329;DHT22;4703;48.748;19.142;2024-03-23T13:29:46;16.00;90.90
9329;DHT22;4703;48.748;19.142;2024-03-23T13:32:12;15.90;90.60
9329;DHT22;4703;48.748;19.142;2024-03-23T13:34:39;15.90;90.90
9329;DHT22;4703;48.748;19.142;2024-03-23T13:37:05;16.00;90.50
9329;DHT22;4703;48.748;19.142;2024-03-23T13:39:33;16.00;90.10
9329;DHT22;4703;48.748;19.142;2024-03-23T13:41:59;16.00;90.50
9329;DHT22;4703;48.748;19.142;2024-03-23T13:44:25;16.00;90.60
9329;DHT22;4703;48.748;19.142;2024-03-23T13:46:51;16.10;90.60
9329;DHT22;4703;48.748;19.142;2024-03-23T13:49:31;16.20;90.60
9329;DHT22;4703;48.748;19.142;2024-03-23T13:51:59;16.60;90.00
9329;DHT22;4703;48.748;19.142;2024-03-23T13:54:26;16.70;89.50
9329;DHT22;4703;48.748;19.142;2024-03-23T13:56:54;16.90;88.40
9329;DHT22;4703;48.748;19.142;2024-03-23T13:59:21;17.10;88.60
9329;DHT22;4703;48.748;19.142;2024-03-23T14:01:49;17.20;88.70
9329;DHT22;4703;48.748;19.142;2024-03-23T14:04:16;17.20;89.60
9329;DHT22;4703;48.748;19.142;2024-03-23T14:06:43;17.30;89.80
9329;DHT22;4703;48.748;19.142;2024-03-23T14:09:12;17.60;88.40
9329;DHT22;4703;48.748;19.142;2024-03-23T14:11:40;17.70;88.00
9329;DHT22;4703;48.748;19.142;2024-03-23T14:14:08;17.70;87.60
9329;DHT22;4703;48.748;19.142;2024-03-23T14:16:35;17.80;88.30
9329;DHT22;4703;48.748;19.142;2024-03-23T14:19:01;17.80;88.60
9329;DHT22;4703;48.748;19.142;2024-03-23T14:21:27;17.80;87.40
9329;DHT22;4703;48.748;19.142;2024-03-23T14:23:53;17.80;86.50
9329;DHT22;4703;48.748;19.142;2024-03-23T14:26:20;17.60;87.70
9329;DHT22;4703;48.748;19.142;2024-03-23T14:28:46;17.60;86.60
9329;DHT22;4703;48.748;19.142;2024-03-23T14:31:12;17.60;86.70
9329;DHT22;4703;48.748;19.142;2024-03-23T14:33:39;17.70;86.60
9329;DHT22;4703;48.748;19.142;2024-03-23T14:36:16;17.50;87.10
9329;DHT22;4703;48.748;19.142;2024-03-23T14:38:49;17.70;87.60
9329;DHT22;4703;48.748;19.142;2024-03-23T14:41:15;17.70;89.30
9329;DHT22;4703;48.748;19.142;2024-03-23T14:43:41;17.70;88.20
9329;DHT22;4703;48.748;19.142;2024-03-23T14:46:11;17.80;87.70
9329;DHT22;4703;48.748;19.142;2024-03-23T14:48:43;17.80;87.20
9329;DHT22;4703;48.748;19.142;2024-03-23T14:51:10;17.80;86.10
9329;DHT22;4703;48.748;19.142;2024-03-23T14:53:38;17.70;85.70
9329;DHT22;4703;48.748;19.142;2024-03-23T14:56:08;17.60;84.60
9329;DHT22;4703;48.748;19.142;2024-03-23T14:58:37;17.40;84.70
9329;DHT22;4703;48.748;19.142;2024-03-23T15:01:04;17.30;85.50
9329;DHT22;4703;48.748;19.142;2024-03-23T15:03:38;17.30;85.50
9329;DHT22;4703;48.748;19.142;2024-03-23T15:06:05;17.10;86.10
9329;DHT22;4703;48.748;19.142;2024-03-23T15:08:32;17.00;85.70
9329;DHT22;4703;48.748;19.142;2024-03-23T15:11:01;16.90;86.10
9329;DHT22;4703;48.748;19.142;2024-03-23T15:13:37;16.80;86.50
9329;DHT22;4703;48.748;19.142;2024-03-23T15:16:04;16.80;86.80
9329;DHT22;4703;48.748;19.142;2024-03-23T15:18:32;16.70;86.90
9329;DHT22;4703;48.748;19.142;2024-03-23T15:20:59;16.70;87.10
9329;DHT22;4703;48.748;19.142;2024-03-23T15:23:29;16.70;87.60
9329;DHT22;4703;48.748;19.142;2024-03-23T15:25:59;16.60;87.50
9329;DHT22;4703;48.748;19.142;2024-03-23T15:28:27;16.60;88.00
9329;DHT22;4703;48.748;19.142;2024-03-23T15:31:07;16.50;87.30
9329;DHT22;4703;48.748;19.142;2024-03-23T15:33:36;16.50;87.40
9329;DHT22;4703;48.748;19.142;2024-03-23T15:36:03;16.50;88.00
9329;DHT22;4703;48.748;19.142;2024-03-23T15:38:31;16.40;88.40
9329;DHT22;4703;48.748;19.142;2024-03-23T15:40:58;16.30;88.80
9329;DHT22;4703;48.748;19.142;2024-03-23T15:43:25;16.20;89.00
9329;DHT22;4703;48.748;19.142;2024-03-23T15:45:58;16.30;89.40
9329;DHT22;4703;48.748;19.142;2024-03-23T15:48:29;16.10;89.90
9329;DHT22;4703;48.748;19.142;2024-03-23T15:51:00;16.00;89.70
9329;DHT22;4703;48.748;19.142;2024-03-23T15:53:30;15.90;90.00
9329;DHT22;4703;48.748;19.142;2024-03-23T15:56:02;15.90;90.30
9329;DHT22;4703;48.748;19.142;2024-03-23T15:58:31;15.70;90.40
9329;DHT22;4703;48.748;19.142;2024-03-23T16:01:03;15.70;90.60
9329;DHT22;4703;48.748;19.142;2024-03-23T16:03:34;15.70;90.80
9329;DHT22;4703;48.748;19.142;2024-03-23T16:06:02;15.70;90.90
9329;DHT22;4703;48.748;19.142;2024-03-23T16:08:30;15.60;91.00
9329;DHT22;4703;48.748;19.142;2024-03-23T16:11:00;15.50;91.00
9329;DHT22;4703;48.748;19.142;2024-03-23T16:13:27;15.50;91.20
9329;DHT22;4703;48.748;19.142;2024-03-23T16:16:06;15.50;91.50
9329;DHT22;4703;48.748;19.142;2024-03-23T16:18:34;15.40;90.70
9329;DHT22;4703;48.748;19.142;2024-03-23T16:21:02;15.20;90.30
9329;DHT22;4703;48.748;19.142;2024-03-23T16:23:29;15.10;89.40
9329;DHT22;4703;48.748;19.142;2024-03-23T16:25:56;14.90;89.40
9329;DHT22;4703;48.748;19.142;2024-03-23T16:33:25;14.20;90.30
9329;DHT22;4703;48.748;19.142;2024-03-23T16:36:09;14.00;90.80
9329;DHT22;4703;48.748;19.142;2024-03-23T16:38:38;13.80;91.30
9329;DHT22;4703;48.748;19.142;2024-03-23T16:41:06;13.80;91.80
9329;DHT22;4703;48.748;19.142;2024-03-23T16:43:34;13.50;91.90
9329;DHT22;4703;48.748;19.142;2024-03-23T16:46:02;13.40;92.20
9329;DHT22;4703;48.748;19.142;2024-03-23T16:48:30;13.30;92.60
9329;DHT22;4703;48.748;19.142;2024-03-23T16:51:01;13.30;93.10
9329;DHT22;4703;48.748;19.142;2024-03-23T16:53:30;13.20;93.40
9329;DHT22;4703;48.748;19.142;2024-03-23T16:56:03;13.10;93.40